sensor_id;sensor_type;location;lat;lon;timestamp;P1;durP1;ratioP1;P2;durP2;ratioP2
72037;SDS011;59900;50.788;12.904;2023-04-25T00:01:28;14.33;;;4.20;;
72037;SDS011;59900;50.788;12.904;2023-04-25T00:03:54;10.83;;;4.10;;
72037;SDS011;59900;50.788;12.904;2023-04-25T00:06:19;11.90;;;4.30;;
72037;SDS011;59900;50.788;12.904;2023-04-25T00:08:44;7.97;;;3.97;;
72037;SDS011;59900;50.788;12.904;2023-04-25T00:11:10;7.90;;;3.90;;
72037;SDS011;59900;50.788;12.904;2023-04-25T00:13:35;8.70;;;4.20;;
72037;SDS011;59900;50.788;12.904;2023-04-25T00:16:00;9.87;;;4.87;;
72037;SDS011;59900;50.788;12.904;2023-04-25T00:18:27;8.57;;;4.55;;
72037;SDS011;59900;50.788;12.904;2023-04-25T00:20:54;9.27;;;4.38;;
72037;SDS011;59900;50.788;12.904;2023-04-25T00:23:20;9.57;;;4.53;;
72037;SDS011;59900;50.788;12.904;2023-04-25T00:25:46;11.50;;;4.40;;
72037;SDS011;59900;50.788;12.904;2023-04-25T00:28:12;8.73;;;4.00;;
72037;SDS011;59900;50.788;12.904;2023-04-25T00:30:38;9.70;;;4.40;;
72037;SDS011;59900;50.788;12.904;2023-04-25T00:33:04;10.70;;;4.40;;
72037;SDS011;59900;50.788;12.904;2023-04-25T00:35:29;10.70;;;3.90;;
72037;SDS011;59900;50.788;12.904;2023-04-25T00:37:54;9.67;;;4.03;;
72037;SDS011;59900;50.788;12.904;2023-04-25T00:40:20;12.93;;;4.60;;
72037;SDS011;59900;50.788;12.904;2023-04-25T00:42:45;10.27;;;5.00;;
72037;SDS011;59900;50.788;12.904;2023-04-25T00:45:12;9.43;;;4.30;;
72037;SDS011;59900;50.788;12.904;2023-04-25T00:47:39;10.90;;;4.40;;
72037;SDS011;59900;50.788;12.904;2023-04-25T00:50:05;9.45;;;5.07;;
72037;SDS011;59900;50.788;12.904;2023-04-25T00:52:31;11.75;;;4.90;;
72037;SDS011;59900;50.788;12.904;2023-04-25T00:54:57;11.03;;;4.30;;
72037;SDS011;59900;50.788;12.904;2023-04-25T00:57:22;9.87;;;4.57;;
72037;SDS011;59900;50.788;12.904;2023-04-25T00:59:47;8.87;;;4.80;;
72037;SDS011;59900;50.788;12.904;2023-04-25T01:02:12;12.33;;;4.90;;
72037;SDS011;59900;50.788;12.904;2023-04-25T01:04:38;9.90;;;4.83;;
72037;SDS011;59900;50.788;12.904;2023-04-25T01:07:03;11.37;;;4.70;;
72037;SDS011;59900;50.788;12.904;2023-04-25T01:09:29;12.70;;;4.80;;
72037;SDS011;59900;50.788;12.904;2023-04-25T01:11:56;11.30;;;4.87;;
72037;SDS011;59900;50.788;12.904;2023-04-25T01:14:22;12.25;;;5.43;;
72037;SDS011;59900;50.788;12.904;2023-04-25T01:16:47;8.73;;;4.67;;
72037;SDS011;59900;50.788;12.904;2023-04-25T01:19:13;9.80;;;5.13;;
72037;SDS011;59900;50.788;12.904;2023-04-25T01:21:41;11.43;;;5.00;;
72037;SDS011;59900;50.788;12.904;2023-04-25T01:24:07;8.60;;;4.33;;
72037;SDS011;59900;50.788;12.904;2023-04-25T01:26:32;9.77;;;4.80;;
72037;SDS011;59900;50.788;12.904;2023-04-25T01:28:59;10.25;;;4.90;;
72037;SDS011;59900;50.788;12.904;2023-04-25T01:31:26;11.93;;;5.40;;
72037;SDS011;59900;50.788;12.904;2023-04-25T01:33:52;13.18;;;4.72;;
72037;SDS011;59900;50.788;12.904;2023-04-25T01:36:17;11.60;;;4.63;;
72037;SDS011;59900;50.788;12.904;2023-04-25T01:38:43;11.47;;;4.73;;
72037;SDS011;59900;50.788;12.904;2023-04-25T01:41:09;12.18;;;5.22;;
72037;SDS011;59900;50.788;12.904;2023-04-25T01:43:34;10.10;;;4.73;;
72037;SDS011;59900;50.788;12.904;2023-04-25T01:46:00;11.40;;;4.88;;
72037;SDS011;59900;50.788;12.904;2023-04-25T01:48:25;10.77;;;4.57;;
72037;SDS011;59900;50.788;12.904;2023-04-25T01:50:51;10.10;;;4.97;;
72037;SDS011;59900;50.788;12.904;2023-04-25T01:53:16;9.47;;;4.43;;
72037;SDS011;59900;50.788;12.904;2023-04-25T01:55:41;8.93;;;4.70;;
72037;SDS011;59900;50.788;12.904;2023-04-25T01:58:07;10.23;;;4.80;;
72037;SDS011;59900;50.788;12.904;2023-04-25T02:00:34;10.23;;;4.30;;
72037;SDS011;59900;50.788;12.904;2023-04-25T02:03:03;9.80;;;4.47;;
72037;SDS011;59900;50.788;12.904;2023-04-25T02:05:33;10.77;;;4.60;;
72037;SDS011;59900;50.788;12.904;2023-04-25T02:08:00;9.43;;;4.88;;
72037;SDS011;59900;50.788;12.904;2023-04-25T02:10:29;9.57;;;4.85;;
72037;SDS011;59900;50.788;12.904;2023-04-25T02:12:55;9.63;;;4.60;;
72037;SDS011;59900;50.788;12.904;2023-04-25T02:15:22;8.43;;;4.47;;
72037;SDS011;59900;50.788;12.904;2023-04-25T02:17:47;10.13;;;4.60;;
72037;SDS011;59900;50.788;12.904;2023-04-25T02:20:12;11.33;;;5.00;;
72037;SDS011;59900;50.788;12.904;2023-04-25T02:22:37;11.07;;;4.77;;
72037;SDS011;59900;50.788;12.904;2023-04-25T02:25:03;9.33;;;4.73;;
72037;SDS011;59900;50.788;12.904;2023-04-25T02:27:29;9.00;;;4.27;;
72037;SDS011;59900;50.788;12.904;2023-04-25T02:29:55;13.05;;;5.22;;
72037;SDS011;59900;50.788;12.904;2023-04-25T02:32:20;10.60;;;5.13;;
72037;SDS011;59900;50.788;12.904;2023-04-25T02:34:45;11.67;;;5.10;;
72037;SDS011;59900;50.788;12.904;2023-04-25T02:37:11;9.30;;;4.77;;
72037;SDS011;59900;50.788;12.904;2023-04-25T02:39:36;11.20;;;5.07;;
72037;SDS011;59900;50.788;12.904;2023-04-25T02:42:01;10.73;;;4.67;;
72037;SDS011;59900;50.788;12.904;2023-04-25T02:44:27;10.45;;;4.45;;
72037;SDS011;59900;50.788;12.904;2023-04-25T02:46:52;8.63;;;4.60;;
72037;SDS011;59900;50.788;12.904;2023-04-25T02:49:18;9.20;;;4.33;;
72037;SDS011;59900;50.788;12.904;2023-04-25T02:51:43;9.60;;;4.67;;
72037;SDS011;59900;50.788;12.904;2023-04-25T02:54:08;9.27;;;4.47;;
72037;SDS011;59900;50.788;12.904;2023-04-25T02:56:34;11.60;;;4.93;;
72037;SDS011;59900;50.788;12.904;2023-04-25T02:58:59;8.73;;;4.73;;
72037;SDS011;59900;50.788;12.904;2023-04-25T03:01:24;11.00;;;5.30;;
72037;SDS011;59900;50.788;12.904;2023-04-25T03:03:49;10.73;;;4.87;;
72037;SDS011;59900;50.788;12.904;2023-04-25T03:06:15;9.87;;;4.80;;
72037;SDS011;59900;50.788;12.904;2023-04-25T03:08:40;10.35;;;5.18;;
72037;SDS011;59900;50.788;12.904;2023-04-25T03:11:06;10.43;;;4.50;;
72037;SDS011;59900;50.788;12.904;2023-04-25T03:13:31;10.00;;;4.63;;
72037;SDS011;59900;50.788;12.904;2023-04-25T03:15:56;13.13;;;5.67;;
72037;SDS011;59900;50.788;12.904;2023-04-25T03:18:21;10.47;;;5.03;;
72037;SDS011;59900;50.788;12.904;2023-04-25T03:20:47;11.40;;;5.27;;
72037;SDS011;59900;50.788;12.904;2023-04-25T03:23:12;12.07;;;5.23;;
72037;SDS011;59900;50.788;12.904;2023-04-25T03:25:37;11.70;;;5.50;;
72037;SDS011;59900;50.788;12.904;2023-04-25T03:28:02;13.00;;;5.60;;
72037;SDS011;59900;50.788;12.904;2023-04-25T03:30:28;9.97;;;5.33;;
72037;SDS011;59900;50.788;12.904;2023-04-25T03:32:53;12.90;;;5.57;;
72037;SDS011;59900;50.788;12.904;2023-04-25T03:35:18;9.83;;;5.23;;
72037;SDS011;59900;50.788;12.904;2023-04-25T03:37:43;11.20;;;5.50;;
72037;SDS011;59900;50.788;12.904;2023-04-25T03:40:10;13.35;;;5.25;;
72037;SDS011;59900;50.788;12.904;2023-04-25T03:42:36;10.68;;;5.32;;
72037;SDS011;59900;50.788;12.904;2023-04-25T03:45:01;9.93;;;5.20;;
72037;SDS011;59900;50.788;12.904;2023-04-25T03:47:26;10.73;;;5.10;;
72037;SDS011;59900;50.788;12.904;2023-04-25T03:49:52;10.30;;;5.20;;
72037;SDS011;59900;50.788;12.904;2023-04-25T03:52:17;12.93;;;5.60;;
72037;SDS011;59900;50.788;12.904;2023-04-25T03:54:43;10.40;;;5.30;;
72037;SDS011;59900;50.788;12.904;2023-04-25T03:57:08;10.03;;;5.13;;
72037;SDS011;59900;50.788;12.904;2023-04-25T03:59:33;9.10;;;4.83;;
72037;SDS011;59900;50.788;12.904;2023-04-25T04:01:59;10.07;;;4.47;;
72037;SDS011;59900;50.788;12.904;2023-04-25T04:04:24;13.27;;;5.40;;
72037;SDS011;59900;50.788;12.904;2023-04-25T04:06:49;9.57;;;5.43;;
72037;SDS011;59900;50.788;12.904;2023-04-25T04:09:15;9.65;;;5.32;;
72037;SDS011;59900;50.788;12.904;2023-04-25T04:11:41;14.07;;;5.43;;
72037;SDS011;59900;50.788;12.904;2023-04-25T04:14:06;16.73;;;5.00;;
72037;SDS011;59900;50.788;12.904;2023-04-25T04:16:31;8.93;;;4.63;;
72037;SDS011;59900;50.788;12.904;2023-04-25T04:18:57;11.47;;;5.40;;
72037;SDS011;59900;50.788;12.904;2023-04-25T04:21:22;8.43;;;4.67;;
72037;SDS011;59900;50.788;12.904;2023-04-25T04:23:47;10.80;;;5.10;;
72037;SDS011;59900;50.788;12.904;2023-04-25T04:26:12;10.83;;;4.37;;
72037;SDS011;59900;50.788;12.904;2023-04-25T04:28:40;11.75;;;4.93;;
72037;SDS011;59900;50.788;12.904;2023-04-25T04:31:05;8.63;;;4.97;;
72037;SDS011;59900;50.788;12.904;2023-04-25T04:33:32;10.25;;;5.03;;
72037;SDS011;59900;50.788;12.904;2023-04-25T04:35:57;10.10;;;4.80;;
72037;SDS011;59900;50.788;12.904;2023-04-25T04:38:23;11.63;;;5.25;;
72037;SDS011;59900;50.788;12.904;2023-04-25T04:40:48;11.33;;;5.10;;
72037;SDS011;59900;50.788;12.904;2023-04-25T04:43:15;11.25;;;5.32;;
72037;SDS011;59900;50.788;12.904;2023-04-25T04:45:42;9.05;;;4.43;;
72037;SDS011;59900;50.788;12.904;2023-04-25T04:48:08;9.93;;;4.50;;
72037;SDS011;59900;50.788;12.904;2023-04-25T04:50:33;11.73;;;5.13;;
72037;SDS011;59900;50.788;12.904;2023-04-25T04:52:58;8.90;;;4.50;;
72037;SDS011;59900;50.788;12.904;2023-04-25T04:55:24;8.67;;;4.30;;
72037;SDS011;59900;50.788;12.904;2023-04-25T04:57:49;9.17;;;3.60;;
72037;SDS011;59900;50.788;12.904;2023-04-25T05:00:15;10.67;;;4.70;;
72037;SDS011;59900;50.788;12.904;2023-04-25T05:02:40;10.93;;;4.80;;
72037;SDS011;59900;50.788;12.904;2023-04-25T05:05:06;8.90;;;4.13;;
72037;SDS011;59900;50.788;12.904;2023-04-25T05:07:31;10.57;;;4.43;;
72037;SDS011;59900;50.788;12.904;2023-04-25T05:09:56;9.23;;;4.37;;
72037;SDS011;59900;50.788;12.904;2023-04-25T05:12:22;9.47;;;4.47;;
72037;SDS011;59900;50.788;12.904;2023-04-25T05:14:47;8.50;;;4.27;;
72037;SDS011;59900;50.788;12.904;2023-04-25T05:17:12;9.20;;;4.20;;
72037;SDS011;59900;50.788;12.904;2023-04-25T05:19:39;8.83;;;4.10;;
72037;SDS011;59900;50.788;12.904;2023-04-25T05:22:04;11.23;;;4.47;;
72037;SDS011;59900;50.788;12.904;2023-04-25T05:24:30;10.60;;;4.50;;
72037;SDS011;59900;50.788;12.904;2023-04-25T05:26:55;10.52;;;4.50;;
72037;SDS011;59900;50.788;12.904;2023-04-25T05:29:21;11.83;;;4.00;;
72037;SDS011;59900;50.788;12.904;2023-04-25T05:31:46;9.17;;;4.37;;
72037;SDS011;59900;50.788;12.904;2023-04-25T05:34:13;8.70;;;4.00;;
72037;SDS011;59900;50.788;12.904;2023-04-25T05:36:38;8.80;;;3.97;;
72037;SDS011;59900;50.788;12.904;2023-04-25T05:39:03;9.90;;;4.50;;
72037;SDS011;59900;50.788;12.904;2023-04-25T05:41:29;9.23;;;5.00;;
72037;SDS011;59900;50.788;12.904;2023-04-25T05:43:54;8.07;;;3.93;;
72037;SDS011;59900;50.788;12.904;2023-04-25T05:46:19;9.57;;;3.83;;
72037;SDS011;59900;50.788;12.904;2023-04-25T05:48:45;6.70;;;3.70;;
72037;SDS011;59900;50.788;12.904;2023-04-25T05:51:10;8.43;;;4.13;;
72037;SDS011;59900;50.788;12.904;2023-04-25T05:53:35;7.93;;;3.80;;
72037;SDS011;59900;50.788;12.904;2023-04-25T05:56:01;7.53;;;4.07;;
72037;SDS011;59900;50.788;12.904;2023-04-25T05:58:26;8.20;;;4.05;;
72037;SDS011;59900;50.788;12.904;2023-04-25T06:00:52;9.40;;;3.87;;
72037;SDS011;59900;50.788;12.904;2023-04-25T06:03:17;8.10;;;3.80;;
72037;SDS011;59900;50.788;12.904;2023-04-25T06:05:42;7.57;;;3.90;;
72037;SDS011;59900;50.788;12.904;2023-04-25T06:08:08;7.90;;;3.60;;
72037;SDS011;59900;50.788;12.904;2023-04-25T06:10:34;9.85;;;4.40;;
72037;SDS011;59900;50.788;12.904;2023-04-25T06:12:59;11.00;;;4.07;;
72037;SDS011;59900;50.788;12.904;2023-04-25T06:15:24;8.97;;;4.20;;
72037;SDS011;59900;50.788;12.904;2023-04-25T06:17:49;6.73;;;3.57;;
72037;SDS011;59900;50.788;12.904;2023-04-25T06:20:15;8.37;;;4.13;;
72037;SDS011;59900;50.788;12.904;2023-04-25T06:22:40;17.80;;;4.00;;
72037;SDS011;59900;50.788;12.904;2023-04-25T06:25:06;10.00;;;4.10;;
72037;SDS011;59900;50.788;12.904;2023-04-25T06:27:32;9.23;;;4.10;;
72037;SDS011;59900;50.788;12.904;2023-04-25T06:29:57;6.85;;;3.83;;
72037;SDS011;59900;50.788;12.904;2023-04-25T06:32:23;8.60;;;3.57;;
72037;SDS011;59900;50.788;12.904;2023-04-25T06:34:48;10.27;;;3.70;;
72037;SDS011;59900;50.788;12.904;2023-04-25T06:37:13;10.30;;;3.57;;
72037;SDS011;59900;50.788;12.904;2023-04-25T06:39:38;9.80;;;4.20;;
72037;SDS011;59900;50.788;12.904;2023-04-25T06:42:04;10.73;;;3.70;;
72037;SDS011;59900;50.788;12.904;2023-04-25T06:44:29;9.93;;;3.80;;
72037;SDS011;59900;50.788;12.904;2023-04-25T06:46:54;13.70;;;3.73;;
72037;SDS011;59900;50.788;12.904;2023-04-25T06:49:20;9.93;;;4.30;;
72037;SDS011;59900;50.788;12.904;2023-04-25T06:51:45;8.03;;;4.17;;
72037;SDS011;59900;50.788;12.904;2023-04-25T06:54:10;9.83;;;3.87;;
72037;SDS011;59900;50.788;12.904;2023-04-25T06:56:35;11.83;;;3.30;;
72037;SDS011;59900;50.788;12.904;2023-04-25T06:59:01;8.70;;;4.33;;
72037;SDS011;59900;50.788;12.904;2023-04-25T07:01:26;10.30;;;3.80;;
72037;SDS011;59900;50.788;12.904;2023-04-25T07:03:51;12.60;;;3.70;;
72037;SDS011;59900;50.788;12.904;2023-04-25T07:06:17;8.53;;;3.83;;
72037;SDS011;59900;50.788;12.904;2023-04-25T07:08:42;12.90;;;4.03;;
72037;SDS011;59900;50.788;12.904;2023-04-25T07:11:07;10.93;;;4.50;;
72037;SDS011;59900;50.788;12.904;2023-04-25T07:13:32;9.77;;;4.00;;
72037;SDS011;59900;50.788;12.904;2023-04-25T07:15:58;8.13;;;3.87;;
72037;SDS011;59900;50.788;12.904;2023-04-25T07:18:24;9.25;;;3.90;;
72037;SDS011;59900;50.788;12.904;2023-04-25T07:20:49;9.87;;;3.87;;
72037;SDS011;59900;50.788;12.904;2023-04-25T07:23:15;9.97;;;4.07;;
72037;SDS011;59900;50.788;12.904;2023-04-25T07:25:40;5.77;;;3.00;;
72037;SDS011;59900;50.788;12.904;2023-04-25T07:28:05;17.47;;;4.70;;
72037;SDS011;59900;50.788;12.904;2023-04-25T07:30:30;11.83;;;3.90;;
72037;SDS011;59900;50.788;12.904;2023-04-25T07:32:56;11.20;;;3.33;;
72037;SDS011;59900;50.788;12.904;2023-04-25T07:35:21;9.37;;;3.80;;
72037;SDS011;59900;50.788;12.904;2023-04-25T07:37:46;13.93;;;4.40;;
72037;SDS011;59900;50.788;12.904;2023-04-25T07:40:12;8.77;;;3.23;;
72037;SDS011;59900;50.788;12.904;2023-04-25T07:42:37;12.03;;;3.67;;
72037;SDS011;59900;50.788;12.904;2023-04-25T07:45:02;12.47;;;3.70;;
72037;SDS011;59900;50.788;12.904;2023-04-25T07:47:28;11.07;;;4.27;;
72037;SDS011;59900;50.788;12.904;2023-04-25T07:49:53;15.63;;;4.70;;
72037;SDS011;59900;50.788;12.904;2023-04-25T07:52:19;6.97;;;3.63;;
72037;SDS011;59900;50.788;12.904;2023-04-25T07:54:44;8.13;;;3.40;;
72037;SDS011;59900;50.788;12.904;2023-04-25T07:57:10;6.80;;;3.30;;
72037;SDS011;59900;50.788;12.904;2023-04-25T07:59:35;7.20;;;3.53;;
72037;SDS011;59900;50.788;12.904;2023-04-25T08:02:00;6.53;;;3.30;;
72037;SDS011;59900;50.788;12.904;2023-04-25T08:04:26;9.88;;;3.47;;
72037;SDS011;59900;50.788;12.904;2023-04-25T08:06:51;6.50;;;3.00;;
72037;SDS011;59900;50.788;12.904;2023-04-25T08:09:18;8.57;;;3.00;;
72037;SDS011;59900;50.788;12.904;2023-04-25T08:11:43;7.63;;;3.20;;
72037;SDS011;59900;50.788;12.904;2023-04-25T08:14:08;8.23;;;3.40;;
72037;SDS011;59900;50.788;12.904;2023-04-25T08:16:33;10.40;;;3.20;;
72037;SDS011;59900;50.788;12.904;2023-04-25T08:18:59;9.53;;;3.27;;
72037;SDS011;59900;50.788;12.904;2023-04-25T08:21:25;6.50;;;3.30;;
72037;SDS011;59900;50.788;12.904;2023-04-25T08:23:51;9.45;;;3.10;;
72037;SDS011;59900;50.788;12.904;2023-04-25T08:26:17;8.93;;;3.73;;
72037;SDS011;59900;50.788;12.904;2023-04-25T08:28:42;9.43;;;3.10;;
72037;SDS011;59900;50.788;12.904;2023-04-25T08:31:07;6.03;;;3.23;;
72037;SDS011;59900;50.788;12.904;2023-04-25T08:33:32;9.97;;;3.80;;
72037;SDS011;59900;50.788;12.904;2023-04-25T08:35:58;11.80;;;3.70;;
72037;SDS011;59900;50.788;12.904;2023-04-25T08:38:24;11.18;;;4.25;;
72037;SDS011;59900;50.788;12.904;2023-04-25T08:40:49;10.77;;;4.20;;
72037;SDS011;59900;50.788;12.904;2023-04-25T08:43:17;11.70;;;4.40;;
72037;SDS011;59900;50.788;12.904;2023-04-25T08:45:44;10.07;;;3.80;;
72037;SDS011;59900;50.788;12.904;2023-04-25T08:48:11;8.68;;;3.75;;
72037;SDS011;59900;50.788;12.904;2023-04-25T08:50:55;10.00;;;4.22;;
72037;SDS011;59900;50.788;12.904;2023-04-25T08:53:27;8.75;;;4.00;;
72037;SDS011;59900;50.788;12.904;2023-04-25T08:55:54;9.00;;;4.55;;
72037;SDS011;59900;50.788;12.904;2023-04-25T08:58:21;9.37;;;4.20;;
72037;SDS011;59900;50.788;12.904;2023-04-25T09:00:46;9.23;;;4.25;;
72037;SDS011;59900;50.788;12.904;2023-04-25T09:03:13;8.80;;;3.93;;
72037;SDS011;59900;50.788;12.904;2023-04-25T09:05:39;10.00;;;4.15;;
72037;SDS011;59900;50.788;12.904;2023-04-25T09:08:05;8.33;;;4.00;;
72037;SDS011;59900;50.788;12.904;2023-04-25T09:10:30;8.00;;;3.77;;
72037;SDS011;59900;50.788;12.904;2023-04-25T09:13:06;7.90;;;3.80;;
72037;SDS011;59900;50.788;12.904;2023-04-25T09:15:33;8.32;;;3.90;;
72037;SDS011;59900;50.788;12.904;2023-04-25T09:18:12;8.68;;;3.75;;
72037;SDS011;59900;50.788;12.904;2023-04-25T09:20:43;8.50;;;3.60;;
72037;SDS011;59900;50.788;12.904;2023-04-25T09:23:09;6.57;;;3.38;;
72037;SDS011;59900;50.788;12.904;2023-04-25T09:25:35;7.63;;;3.50;;
72037;SDS011;59900;50.788;12.904;2023-04-25T09:28:05;7.20;;;2.92;;
72037;SDS011;59900;50.788;12.904;2023-04-25T09:30:31;7.80;;;3.38;;
72037;SDS011;59900;50.788;12.904;2023-04-25T09:33:08;10.67;;;3.40;;
72037;SDS011;59900;50.788;12.904;2023-04-25T09:35:36;8.15;;;3.70;;
72037;SDS011;59900;50.788;12.904;2023-04-25T09:38:16;8.13;;;3.65;;
72037;SDS011;59900;50.788;12.904;2023-04-25T09:40:43;6.15;;;3.05;;
72037;SDS011;59900;50.788;12.904;2023-04-25T09:43:18;9.30;;;3.70;;
72037;SDS011;59900;50.788;12.904;2023-04-25T09:45:44;8.77;;;3.40;;
72037;SDS011;59900;50.788;12.904;2023-04-25T09:48:10;8.65;;;3.30;;
72037;SDS011;59900;50.788;12.904;2023-04-25T09:50:36;8.70;;;3.60;;
72037;SDS011;59900;50.788;12.904;2023-04-25T09:53:04;8.17;;;3.53;;
72037;SDS011;59900;50.788;12.904;2023-04-25T09:55:33;8.13;;;3.53;;
72037;SDS011;59900;50.788;12.904;2023-04-25T09:58:02;7.03;;;3.70;;
72037;SDS011;59900;50.788;12.904;2023-04-25T10:00:30;9.33;;;4.50;;
72037;SDS011;59900;50.788;12.904;2023-04-25T10:02:56;9.38;;;4.03;;
72037;SDS011;59900;50.788;12.904;2023-04-25T10:05:24;8.35;;;4.15;;
72037;SDS011;59900;50.788;12.904;2023-04-25T10:07:50;7.72;;;3.60;;
72037;SDS011;59900;50.788;12.904;2023-04-25T10:10:16;10.93;;;4.45;;
72037;SDS011;59900;50.788;12.904;2023-04-25T10:12:43;10.60;;;4.30;;
72037;SDS011;59900;50.788;12.904;2023-04-25T10:15:09;8.38;;;4.32;;
72037;SDS011;59900;50.788;12.904;2023-04-25T10:17:35;8.85;;;4.28;;
72037;SDS011;59900;50.788;12.904;2023-04-25T10:20:04;7.87;;;4.00;;
72037;SDS011;59900;50.788;12.904;2023-04-25T10:22:45;8.60;;;4.15;;
72037;SDS011;59900;50.788;12.904;2023-04-25T10:25:12;9.00;;;3.70;;
72037;SDS011;59900;50.788;12.904;2023-04-25T10:27:39;10.63;;;4.60;;
72037;SDS011;59900;50.788;12.904;2023-04-25T10:30:08;7.40;;;3.93;;
72037;SDS011;59900;50.788;12.904;2023-04-25T10:32:37;7.45;;;4.07;;
72037;SDS011;59900;50.788;12.904;2023-04-25T10:35:16;7.27;;;3.80;;
72037;SDS011;59900;50.788;12.904;2023-04-25T10:38:05;8.43;;;4.70;;
72037;SDS011;59900;50.788;12.904;2023-04-25T10:40:33;8.32;;;4.35;;
72037;SDS011;59900;50.788;12.904;2023-04-25T10:45:55;10.15;;;4.10;;
72037;SDS011;59900;50.788;12.904;2023-04-25T10:48:26;11.57;;;5.70;;
72037;SDS011;59900;50.788;12.904;2023-04-25T10:51:08;11.52;;;5.57;;
72037;SDS011;59900;50.788;12.904;2023-04-25T10:53:34;17.13;;;5.97;;
72037;SDS011;59900;50.788;12.904;2023-04-25T10:55:59;11.65;;;6.10;;
72037;SDS011;59900;50.788;12.904;2023-04-25T10:58:25;17.13;;;6.83;;
72037;SDS011;59900;50.788;12.904;2023-04-25T11:00:51;14.68;;;6.28;;
72037;SDS011;59900;50.788;12.904;2023-04-25T11:03:16;13.07;;;6.20;;
72037;SDS011;59900;50.788;12.904;2023-04-25T11:05:41;11.70;;;5.93;;
72037;SDS011;59900;50.788;12.904;2023-04-25T11:08:11;10.20;;;5.60;;
72037;SDS011;59900;50.788;12.904;2023-04-25T11:10:36;11.02;;;5.53;;
72037;SDS011;59900;50.788;12.904;2023-04-25T11:13:04;10.13;;;5.40;;
72037;SDS011;59900;50.788;12.904;2023-04-25T11:15:30;14.07;;;5.90;;
72037;SDS011;59900;50.788;12.904;2023-04-25T11:17:55;13.07;;;5.30;;
72037;SDS011;59900;50.788;12.904;2023-04-25T11:20:21;14.30;;;6.27;;
72037;SDS011;59900;50.788;12.904;2023-04-25T11:22:47;13.18;;;5.60;;
72037;SDS011;59900;50.788;12.904;2023-04-25T11:25:14;11.82;;;5.53;;
72037;SDS011;59900;50.788;12.904;2023-04-25T11:27:54;12.00;;;5.50;;
72037;SDS011;59900;50.788;12.904;2023-04-25T11:30:22;14.20;;;5.73;;
72037;SDS011;59900;50.788;12.904;2023-04-25T11:32:48;14.85;;;5.70;;
72037;SDS011;59900;50.788;12.904;2023-04-25T11:35:14;12.15;;;5.53;;
72037;SDS011;59900;50.788;12.904;2023-04-25T11:37:40;13.87;;;5.37;;
72037;SDS011;59900;50.788;12.904;2023-04-25T11:40:06;12.17;;;5.37;;
72037;SDS011;59900;50.788;12.904;2023-04-25T11:42:33;11.18;;;4.95;;
72037;SDS011;59900;50.788;12.904;2023-04-25T11:44:59;13.90;;;5.33;;
72037;SDS011;59900;50.788;12.904;2023-04-25T11:47:28;11.85;;;5.22;;
72037;SDS011;59900;50.788;12.904;2023-04-25T11:49:58;12.35;;;5.55;;
72037;SDS011;59900;50.788;12.904;2023-04-25T11:52:24;11.00;;;5.13;;
72037;SDS011;59900;50.788;12.904;2023-04-25T11:54:59;14.95;;;5.63;;
72037;SDS011;59900;50.788;12.904;2023-04-25T11:57:25;10.97;;;5.83;;
72037;SDS011;59900;50.788;12.904;2023-04-25T11:59:50;15.43;;;5.33;;
72037;SDS011;59900;50.788;12.904;2023-04-25T12:02:25;12.13;;;5.00;;
72037;SDS011;59900;50.788;12.904;2023-04-25T12:04:51;11.43;;;4.65;;
72037;SDS011;59900;50.788;12.904;2023-04-25T12:07:16;12.90;;;4.20;;
72037;SDS011;59900;50.788;12.904;2023-04-25T12:09:43;9.65;;;5.05;;
72037;SDS011;59900;50.788;12.904;2023-04-25T12:12:16;13.03;;;4.20;;
72037;SDS011;59900;50.788;12.904;2023-04-25T12:14:45;10.57;;;4.27;;
72037;SDS011;59900;50.788;12.904;2023-04-25T12:17:13;14.85;;;3.88;;
72037;SDS011;59900;50.788;12.904;2023-04-25T12:19:38;10.47;;;4.10;;
72037;SDS011;59900;50.788;12.904;2023-04-25T12:22:18;12.48;;;3.22;;
72037;SDS011;59900;50.788;12.904;2023-04-25T12:24:45;10.25;;;4.07;;
72037;SDS011;59900;50.788;12.904;2023-04-25T12:27:10;13.60;;;4.10;;
72037;SDS011;59900;50.788;12.904;2023-04-25T12:29:49;10.65;;;3.85;;
72037;SDS011;59900;50.788;12.904;2023-04-25T12:32:16;9.93;;;3.80;;
72037;SDS011;59900;50.788;12.904;2023-04-25T12:34:42;10.55;;;3.60;;
72037;SDS011;59900;50.788;12.904;2023-04-25T12:37:07;12.07;;;4.37;;
72037;SDS011;59900;50.788;12.904;2023-04-25T12:39:32;11.20;;;4.83;;
72037;SDS011;59900;50.788;12.904;2023-04-25T12:41:58;13.33;;;4.37;;
72037;SDS011;59900;50.788;12.904;2023-04-25T12:44:24;11.15;;;4.35;;
72037;SDS011;59900;50.788;12.904;2023-04-25T12:46:49;10.70;;;4.77;;
72037;SDS011;59900;50.788;12.904;2023-04-25T12:49:15;10.40;;;3.93;;
72037;SDS011;59900;50.788;12.904;2023-04-25T12:51:41;11.90;;;4.95;;
72037;SDS011;59900;50.788;12.904;2023-04-25T12:54:06;12.27;;;4.90;;
72037;SDS011;59900;50.788;12.904;2023-04-25T12:56:33;15.00;;;5.38;;
72037;SDS011;59900;50.788;12.904;2023-04-25T12:58:58;10.18;;;3.17;;
72037;SDS011;59900;50.788;12.904;2023-04-25T13:01:24;7.97;;;3.60;;
72037;SDS011;59900;50.788;12.904;2023-04-25T13:03:51;9.80;;;3.37;;
72037;SDS011;59900;50.788;12.904;2023-04-25T13:06:17;7.40;;;3.88;;
72037;SDS011;59900;50.788;12.904;2023-04-25T13:08:42;8.65;;;4.00;;
72037;SDS011;59900;50.788;12.904;2023-04-25T13:11:08;13.10;;;3.80;;
72037;SDS011;59900;50.788;12.904;2023-04-25T13:13:33;19.60;;;4.80;;
72037;SDS011;59900;50.788;12.904;2023-04-25T13:16:00;29.13;;;5.55;;
72037;SDS011;59900;50.788;12.904;2023-04-25T13:18:29;25.65;;;5.03;;
72037;SDS011;59900;50.788;12.904;2023-04-25T13:20:55;40.03;;;6.40;;
72037;SDS011;59900;50.788;12.904;2023-04-25T13:23:21;11.95;;;3.35;;
72037;SDS011;59900;50.788;12.904;2023-04-25T13:25:47;9.40;;;3.43;;
72037;SDS011;59900;50.788;12.904;2023-04-25T13:28:12;25.93;;;4.23;;
72037;SDS011;59900;50.788;12.904;2023-04-25T13:30:38;9.90;;;2.90;;
72037;SDS011;59900;50.788;12.904;2023-04-25T13:33:04;28.40;;;5.60;;
72037;SDS011;59900;50.788;12.904;2023-04-25T13:35:31;22.60;;;4.63;;
72037;SDS011;59900;50.788;12.904;2023-04-25T13:37:57;11.85;;;3.80;;
72037;SDS011;59900;50.788;12.904;2023-04-25T13:40:22;15.37;;;3.67;;
72037;SDS011;59900;50.788;12.904;2023-04-25T13:42:48;31.10;;;5.70;;
72037;SDS011;59900;50.788;12.904;2023-04-25T13:45:13;24.07;;;4.50;;
72037;SDS011;59900;50.788;12.904;2023-04-25T13:47:38;15.10;;;4.23;;
72037;SDS011;59900;50.788;12.904;2023-04-25T13:50:04;11.97;;;3.33;;
72037;SDS011;59900;50.788;12.904;2023-04-25T13:52:33;9.00;;;2.95;;
72037;SDS011;59900;50.788;12.904;2023-04-25T13:54:58;7.87;;;3.10;;
72037;SDS011;59900;50.788;12.904;2023-04-25T13:57:24;9.80;;;2.70;;
72037;SDS011;59900;50.788;12.904;2023-04-25T13:59:49;24.50;;;4.00;;
72037;SDS011;59900;50.788;12.904;2023-04-25T14:02:15;12.75;;;3.22;;
72037;SDS011;59900;50.788;12.904;2023-04-25T14:04:40;9.07;;;3.70;;
72037;SDS011;59900;50.788;12.904;2023-04-25T14:07:06;10.73;;;3.85;;
72037;SDS011;59900;50.788;12.904;2023-04-25T14:09:31;22.33;;;3.93;;
72037;SDS011;59900;50.788;12.904;2023-04-25T14:11:57;17.40;;;3.23;;
72037;SDS011;59900;50.788;12.904;2023-04-25T14:14:22;18.23;;;3.90;;
72037;SDS011;59900;50.788;12.904;2023-04-25T14:16:48;10.10;;;3.38;;
72037;SDS011;59900;50.788;12.904;2023-04-25T14:19:14;9.17;;;3.07;;
72037;SDS011;59900;50.788;12.904;2023-04-25T14:21:40;9.23;;;3.10;;
72037;SDS011;59900;50.788;12.904;2023-04-25T14:24:05;9.63;;;2.80;;
72037;SDS011;59900;50.788;12.904;2023-04-25T14:26:31;8.90;;;3.42;;